sensor_id;sensor_type;location;lat;lon;timestamp;temperature;humidity
16771;DHT22;8503;52.472;13.344;2023-05-24T00:00:50;9.53;80.01
16771;DHT22;8503;52.472;13.344;2023-05-24T00:02:54;9.50;79.88
16771;DHT22;8503;52.472;13.344;2023-05-24T00:04:58;9.49;79.89
16771;DHT22;8503;52.472;13.344;2023-05-24T00:07:02;9.48;80.16
16771;DHT22;8503;52.472;13.344;2023-05-24T00:09:08;9.42;80.52
16771;DHT22;8503;52.472;13.344;2023-05-24T00:11:13;9.42;80.75
16771;DHT22;8503;52.472;13.344;2023-05-24T00:13:17;9.45;80.07
16771;DHT22;8503;52.472;13.344;2023-05-24T00:15:21;9.44;80.20
16771;DHT22;8503;52.472;13.344;2023-05-24T00:17:24;9.38;80.40
16771;DHT22;8503;52.472;13.344;2023-05-24T00:19:30;9.36;80.22
16771;DHT22;8503;52.472;13.344;2023-05-24T00:21:34;9.36;80.44
16771;DHT22;8503;52.472;13.344;2023-05-24T00:23:38;9.39;80.32
16771;DHT22;8503;52.472;13.344;2023-05-24T00:25:44;9.38;80.15
16771;DHT22;8503;52.472;13.344;2023-05-24T00:27:48;9.41;79.97
16771;DHT22;8503;52.472;13.344;2023-05-24T00:29:51;9.47;80.43
16771;DHT22;8503;52.472;13.344;2023-05-24T00:31:55;9.55;79.56
16771;DHT22;8503;52.472;13.344;2023-05-24T00:33:59;9.56;79.16
16771;DHT22;8503;52.472;13.344;2023-05-24T00:36:03;9.60;79.18
16771;DHT22;8503;52.472;13.344;2023-05-24T00:38:07;9.59;79.01
16771;DHT22;8503;52.472;13.344;2023-05-24T00:40:10;9.56;79.33
16771;DHT22;8503;52.472;13.344;2023-05-24T00:42:15;9.61;79.33
16771;DHT22;8503;52.472;13.344;2023-05-24T00:44:23;9.62;79.17
16771;DHT22;8503;52.472;13.344;2023-05-24T00:46:28;9.63;79.59
16771;DHT22;8503;52.472;13.344;2023-05-24T00:48:33;9.68;79.30
16771;DHT22;8503;52.472;13.344;2023-05-24T00:50:39;9.70;79.21
16771;DHT22;8503;52.472;13.344;2023-05-24T00:52:43;9.72;79.22
16771;DHT22;8503;52.472;13.344;2023-05-24T00:54:49;9.70;79.15
16771;DHT22;8503;52.472;13.344;2023-05-24T00:56:54;9.70;79.41
16771;DHT22;8503;52.472;13.344;2023-05-24T00:58:59;9.68;79.08
16771;DHT22;8503;52.472;13.344;2023-05-24T01:01:04;9.69;79.44
16771;DHT22;8503;52.472;13.344;2023-05-24T01:03:08;9.72;78.80
16771;DHT22;8503;52.472;13.344;2023-05-24T01:05:12;9.74;79.12
16771;DHT22;8503;52.472;13.344;2023-05-24T01:07:20;9.71;79.47
16771;DHT22;8503;52.472;13.344;2023-05-24T01:09:30;9.72;79.77
16771;DHT22;8503;52.472;13.344;2023-05-24T01:11:38;9.72;79.72
16771;DHT22;8503;52.472;13.344;2023-05-24T01:13:52;9.76;79.56
16771;DHT22;8503;52.472;13.344;2023-05-24T01:16:03;9.81;79.98
16771;DHT22;8503;52.472;13.344;2023-05-24T01:18:12;9.83;79.56
16771;DHT22;8503;52.472;13.344;2023-05-24T01:20:18;9.78;79.76
16771;DHT22;8503;52.472;13.344;2023-05-24T01:22:26;9.79;79.99
16771;DHT22;8503;52.472;13.344;2023-05-24T01:24:40;9.79;80.19
16771;DHT22;8503;52.472;13.344;2023-05-24T01:27:01;9.80;80.03
16771;DHT22;8503;52.472;13.344;2023-05-24T01:29:08;9.78;80.13
16771;DHT22;8503;52.472;13.344;2023-05-24T01:31:13;9.83;80.31
16771;DHT22;8503;52.472;13.344;2023-05-24T01:33:18;9.86;80.44
16771;DHT22;8503;52.472;13.344;2023-05-24T01:35:22;9.86;80.24
16771;DHT22;8503;52.472;13.344;2023-05-24T01:37:25;9.85;80.33
16771;DHT22;8503;52.472;13.344;2023-05-24T01:39:29;9.86;80.40
16771;DHT22;8503;52.472;13.344;2023-05-24T01:41:35;9.88;80.23
16771;DHT22;8503;52.472;13.344;2023-05-24T01:43:45;9.89;80.11
16771;DHT22;8503;52.472;13.344;2023-05-24T01:45:56;9.86;80.40
16771;DHT22;8503;52.472;13.344;2023-05-24T01:48:07;9.85;80.55
16771;DHT22;8503;52.472;13.344;2023-05-24T01:50:22;9.90;80.56
16771;DHT22;8503;52.472;13.344;2023-05-24T01:52:30;9.93;80.32
16771;DHT22;8503;52.472;13.344;2023-05-24T01:54:36;9.96;80.11
16771;DHT22;8503;52.472;13.344;2023-05-24T01:56:41;9.97;79.80
16771;DHT22;8503;52.472;13.344;2023-05-24T01:58:48;10.01;80.32
16771;DHT22;8503;52.472;13.344;2023-05-24T02:00:53;9.98;79.59
16771;DHT22;8503;52.472;13.344;2023-05-24T02:02:57;9.99;79.72
16771;DHT22;8503;52.472;13.344;2023-05-24T02:05:02;10.00;79.67
16771;DHT22;8503;52.472;13.344;2023-05-24T02:07:06;10.03;79.42
16771;DHT22;8503;52.472;13.344;2023-05-24T02:09:10;9.99;79.19
16771;DHT22;8503;52.472;13.344;2023-05-24T02:11:13;9.98;79.37
16771;DHT22;8503;52.472;13.344;2023-05-24T02:13:17;9.98;79.91
16771;DHT22;8503;52.472;13.344;2023-05-24T02:15:22;10.00;79.46
16771;DHT22;8503;52.472;13.344;2023-05-24T02:17:26;10.03;79.59
16771;DHT22;8503;52.472;13.344;2023-05-24T02:19:33;9.99;79.45
16771;DHT22;8503;52.472;13.344;2023-05-24T02:21:37;9.99;79.66
16771;DHT22;8503;52.472;13.344;2023-05-24T02:23:41;9.99;79.35
16771;DHT22;8503;52.472;13.344;2023-05-24T02:25:45;9.95;79.68
16771;DHT22;8503;52.472;13.344;2023-05-24T02:27:48;9.92;79.76
16771;DHT22;8503;52.472;13.344;2023-05-24T02:29:52;9.92;79.88
16771;DHT22;8503;52.472;13.344;2023-05-24T02:31:58;9.95;80.15
16771;DHT22;8503;52.472;13.344;2023-05-24T02:34:02;9.99;79.70
16771;DHT22;8503;52.472;13.344;2023-05-24T02:36:06;10.00;80.24
16771;DHT22;8503;52.472;13.344;2023-05-24T02:38:09;10.01;79.84
16771;DHT22;8503;52.472;13.344;2023-05-24T02:40:13;10.00;79.55
16771;DHT22;8503;52.472;13.344;2023-05-24T02:42:17;9.94;79.77
16771;DHT22;8503;52.472;13.344;2023-05-24T02:44:21;9.91;79.78
16771;DHT22;8503;52.472;13.344;2023-05-24T02:46:24;9.89;79.92
16771;DHT22;8503;52.472;13.344;2023-05-24T02:48:30;9.89;79.92
16771;DHT22;8503;52.472;13.344;2023-05-24T02:50:42;9.89;80.27
16771;DHT22;8503;52.472;13.344;2023-05-24T02:52:46;9.92;80.40
16771;DHT22;8503;52.472;13.344;2023-05-24T02:54:49;9.94;80.00
16771;DHT22;8503;52.472;13.344;2023-05-24T02:56:54;9.93;79.87
16771;DHT22;8503;52.472;13.344;2023-05-24T02:58:58;9.95;80.12
16771;DHT22;8503;52.472;13.344;2023-05-24T03:01:02;9.94;79.83
16771;DHT22;8503;52.472;13.344;2023-05-24T03:03:05;9.92;80.11
16771;DHT22;8503;52.472;13.344;2023-05-24T03:05:11;9.91;79.89
16771;DHT22;8503;52.472;13.344;2023-05-24T03:07:14;9.91;80.32
16771;DHT22;8503;52.472;13.344;2023-05-24T03:09:18;9.89;80.04
16771;DHT22;8503;52.472;13.344;2023-05-24T03:11:22;9.81;80.10
16771;DHT22;8503;52.472;13.344;2023-05-24T03:13:26;9.83;80.33
16771;DHT22;8503;52.472;13.344;2023-05-24T03:15:30;9.89;79.95
16771;DHT22;8503;52.472;13.344;2023-05-24T03:17:33;9.86;79.75
16771;DHT22;8503;52.472;13.344;2023-05-24T03:19:37;9.88;80.01
16771;DHT22;8503;52.472;13.344;2023-05-24T03:21:42;9.90;79.54
16771;DHT22;8503;52.472;13.344;2023-05-24T03:23:46;9.88;79.66
16771;DHT22;8503;52.472;13.344;2023-05-24T03:25:50;9.85;79.52
16771;DHT22;8503;52.472;13.344;2023-05-24T03:27:54;9.80;79.70
16771;DHT22;8503;52.472;13.344;2023-05-24T03:29:57;9.83;79.84
16771;DHT22;8503;52.472;13.344;2023-05-24T03:32:01;9.89;79.91
16771;DHT22;8503;52.472;13.344;2023-05-24T03:34:06;9.88;79.43
16771;DHT22;8503;52.472;13.344;2023-05-24T03:36:09;9.84;79.78
16771;DHT22;8503;52.472;13.344;2023-05-24T03:38:14;9.91;79.29
16771;DHT22;8503;52.472;13.344;2023-05-24T03:40:18;9.86;79.19
16771;DHT22;8503;52.472;13.344;2023-05-24T03:42:22;9.86;79.24
16771;DHT22;8503;52.472;13.344;2023-05-24T03:44:25;9.96;79.08
16771;DHT22;8503;52.472;13.344;2023-05-24T03:46:29;9.99;78.85
16771;DHT22;8503;52.472;13.344;2023-05-24T03:48:33;10.01;78.89
16771;DHT22;8503;52.472;13.344;2023-05-24T03:50:36;9.99;78.50
16771;DHT22;8503;52.472;13.344;2023-05-24T03:52:42;9.96;78.64
16771;DHT22;8503;52.472;13.344;2023-05-24T03:54:49;9.97;78.68
16771;DHT22;8503;52.472;13.344;2023-05-24T03:56:52;10.07;78.55
16771;DHT22;8503;52.472;13.344;2023-05-24T03:58:57;10.11;78.24
16771;DHT22;8503;52.472;13.344;2023-05-24T04:01:04;10.12;77.92
16771;DHT22;8503;52.472;13.344;2023-05-24T04:03:08;10.15;77.90
16771;DHT22;8503;52.472;13.344;2023-05-24T04:05:12;10.13;77.84
16771;DHT22;8503;52.472;13.344;2023-05-24T04:07:16;10.09;77.84
16771;DHT22;8503;52.472;13.344;2023-05-24T04:09:21;10.13;77.31
16771;DHT22;8503;52.472;13.344;2023-05-24T04:11:26;10.15;77.66
16771;DHT22;8503;52.472;13.344;2023-05-24T04:13:30;10.16;77.24
16771;DHT22;8503;52.472;13.344;2023-05-24T04:15:34;10.19;77.55
16771;DHT22;8503;52.472;13.344;2023-05-24T04:17:38;10.10;77.30
16771;DHT22;8503;52.472;13.344;2023-05-24T04:19:42;10.16;77.74
16771;DHT22;8503;52.472;13.344;2023-05-24T04:21:47;10.18;77.01
16771;DHT22;8503;52.472;13.344;2023-05-24T04:23:51;10.09;77.04
16771;DHT22;8503;52.472;13.344;2023-05-24T04:25:56;10.14;77.05
16771;DHT22;8503;52.472;13.344;2023-05-24T04:28:01;10.18;77.15
16771;DHT22;8503;52.472;13.344;2023-05-24T04:30:06;10.18;76.93
16771;DHT22;8503;52.472;13.344;2023-05-24T04:32:10;10.28;77.07
16771;DHT22;8503;52.472;13.344;2023-05-24T04:34:15;10.40;76.50
16771;DHT22;8503;52.472;13.344;2023-05-24T04:36:19;10.38;75.83
16771;DHT22;8503;52.472;13.344;2023-05-24T04:38:25;10.38;75.83
16771;DHT22;8503;52.472;13.344;2023-05-24T04:40:32;10.36;75.90
16771;DHT22;8503;52.472;13.344;2023-05-24T04:42:37;10.41;75.87
16771;DHT22;8503;52.472;13.344;2023-05-24T04:44:42;10.28;75.54
16771;DHT22;8503;52.472;13.344;2023-05-24T04:46:45;10.39;75.47
16771;DHT22;8503;52.472;13.344;2023-05-24T04:48:49;10.43;75.21
16771;DHT22;8503;52.472;13.344;2023-05-24T04:50:53;10.51;74.98
16771;DHT22;8503;52.472;13.344;2023-05-24T04:52:58;10.62;74.62
16771;DHT22;8503;52.472;13.344;2023-05-24T04:55:04;10.58;74.28
16771;DHT22;8503;52.472;13.344;2023-05-24T04:57:08;10.55;73.93
16771;DHT22;8503;52.472;13.344;2023-05-24T04:59:12;10.51;74.37
16771;DHT22;8503;52.472;13.344;2023-05-24T05:01:17;10.53;74.59
16771;DHT22;8503;52.472;13.344;2023-05-24T05:03:22;10.59;73.94
16771;DHT22;8503;52.472;13.344;2023-05-24T05:05:25;10.67;73.49
16771;DHT22;8503;52.472;13.344;2023-05-24T05:07:29;10.63;73.97
16771;DHT22;8503;52.472;13.344;2023-05-24T05:09:33;10.67;73.17
16771;DHT22;8503;52.472;13.344;2023-05-24T05:11:37;10.52;73.51
16771;DHT22;8503;52.472;13.344;2023-05-24T05:13:40;10.53;73.53
16771;DHT22;8503;52.472;13.344;2023-05-24T05:15:44;10.52;73.62
16771;DHT22;8503;52.472;13.344;2023-05-24T05:17:49;10.34;74.28
16771;DHT22;8503;52.472;13.344;2023-05-24T05:19:53;10.37;74.25
16771;DHT22;8503;52.472;13.344;2023-05-24T05:21:56;10.37;73.63
16771;DHT22;8503;52.472;13.344;2023-05-24T05:24:00;10.49;73.68
16771;DHT22;8503;52.472;13.344;2023-05-24T05:26:04;10.56;72.97
16771;DHT22;8503;52.472;13.344;2023-05-24T05:28:08;10.59;73.49
16771;DHT22;8503;52.472;13.344;2023-05-24T05:30:11;10.68;72.28
16771;DHT22;8503;52.472;13.344;2023-05-24T05:32:15;10.77;72.35
16771;DHT22;8503;52.472;13.344;2023-05-24T05:34:20;10.86;71.84
16771;DHT22;8503;52.472;13.344;2023-05-24T05:36:24;10.83;71.60
16771;DHT22;8503;52.472;13.344;2023-05-24T05:38:28;10.82;71.65
16771;DHT22;8503;52.472;13.344;2023-05-24T05:40:32;10.77;71.61
16771;DHT22;8503;52.472;13.344;2023-05-24T05:42:36;10.79;71.29
16771;DHT22;8503;52.472;13.344;2023-05-24T05:44:39;10.79;71.64
16771;DHT22;8503;52.472;13.344;2023-05-24T05:46:43;10.79;71.44
16771;DHT22;8503;52.472;13.344;2023-05-24T05:48:47;10.83;71.40
16771;DHT22;8503;52.472;13.344;2023-05-24T05:50:51;10.97;71.40
16771;DHT22;8503;52.472;13.344;2023-05-24T05:52:55;11.04;71.40
16771;DHT22;8503;52.472;13.344;2023-05-24T05:54:59;10.86;71.47
16771;DHT22;8503;52.472;13.344;2023-05-24T05:57:04;10.96;71.18
16771;DHT22;8503;52.472;13.344;2023-05-24T05:59:10;11.02;71.49
16771;DHT22;8503;52.472;13.344;2023-05-24T06:01:14;11.12;71.21
16771;DHT22;8503;52.472;13.344;2023-05-24T06:03:18;11.18;71.35
16771;DHT22;8503;52.472;13.344;2023-05-24T06:05:22;11.13;70.93
16771;DHT22;8503;52.472;13.344;2023-05-24T06:07:27;11.15;71.51
16771;DHT22;8503;52.472;13.344;2023-05-24T06:09:31;11.23;71.03
16771;DHT22;8503;52.472;13.344;2023-05-24T06:11:35;11.25;70.53
16771;DHT22;8503;52.472;13.344;2023-05-24T06:13:40;11.34;71.67
16771;DHT22;8503;52.472;13.344;2023-05-24T06:15:43;11.49;71.05
16771;DHT22;8503;52.472;13.344;2023-05-24T06:17:47;11.44;70.49
16771;DHT22;8503;52.472;13.344;2023-05-24T06:19:52;11.59;71.04
16771;DHT22;8503;52.472;13.344;2023-05-24T06:21:56;11.70;69.84
16771;DHT22;8503;52.472;13.344;2023-05-24T06:24:01;11.78;69.46
16771;DHT22;8503;52.472;13.344;2023-05-24T06:26:05;11.62;69.61
16771;DHT22;8503;52.472;13.344;2023-05-24T06:28:10;11.90;69.83
16771;DHT22;8503;52.472;13.344;2023-05-24T06:30:14;12.02;68.85
16771;DHT22;8503;52.472;13.344;2023-05-24T06:32:18;11.87;69.28
16771;DHT22;8503;52.472;13.344;2023-05-24T06:34:22;12.03;69.12
16771;DHT22;8503;52.472;13.344;2023-05-24T06:36:26;12.01;68.28
16771;DHT22;8503;52.472;13.344;2023-05-24T06:38:29;12.03;68.55
16771;DHT22;8503;52.472;13.344;2023-05-24T06:40:35;11.94;68.82
16771;DHT22;8503;52.472;13.344;2023-05-24T06:42:39;12.02;69.11
16771;DHT22;8503;52.472;13.344;2023-05-24T06:44:42;12.18;68.37
16771;DHT22;8503;52.472;13.344;2023-05-24T06:46:46;12.37;68.52
16771;DHT22;8503;52.472;13.344;2023-05-24T06:48:50;12.28;68.39
16771;DHT22;8503;52.472;13.344;2023-05-24T06:50:54;12.00;68.75
16771;DHT22;8503;52.472;13.344;2023-05-24T06:52:57;11.87;69.90
16771;DHT22;8503;52.472;13.344;2023-05-24T06:55:03;11.61;70.11
16771;DHT22;8503;52.472;13.344;2023-05-24T06:57:08;11.67;70.84
16771;DHT22;8503;52.472;13.344;2023-05-24T06:59:15;11.78;70.76
16771;DHT22;8503;52.472;13.344;2023-05-24T07:01:18;11.87;69.97
16771;DHT22;8503;52.472;13.344;2023-05-24T07:03:22;11.87;70.00
16771;DHT22;8503;52.472;13.344;2023-05-24T07:05:27;12.03;69.55
16771;DHT22;8503;52.472;13.344;2023-05-24T07:07:31;11.93;69.71
16771;DHT22;8503;52.472;13.344;2023-05-24T07:09:35;11.93;69.13
16771;DHT22;8503;52.472;13.344;2023-05-24T07:11:46;11.82;69.60
16771;DHT22;8503;52.472;13.344;2023-05-24T07:13:51;12.13;69.78
16771;DHT22;8503;52.472;13.344;2023-05-24T07:15:55;12.40;69.32
16771;DHT22;8503;52.472;13.344;2023-05-24T07:17:59;12.66;68.15
16771;DHT22;8503;52.472;13.344;2023-05-24T07:20:03;12.80;66.78
16771;DHT22;8503;52.472;13.344;2023-05-24T07:22:10;12.58;67.48
16771;DHT22;8503;52.472;13.344;2023-05-24T07:24:14;12.49;68.20
16771;DHT22;8503;52.472;13.344;2023-05-24T07:26:18;12.50;67.90
16771;DHT22;8503;52.472;13.344;2023-05-24T07:28:24;12.46;68.64
16771;DHT22;8503;52.472;13.344;2023-05-24T07:30:29;12.44;67.78
16771;DHT22;8503;52.472;13.344;2023-05-24T07:32:33;12.51;68.02
16771;DHT22;8503;52.472;13.344;2023-05-24T07:34:37;12.49;67.71
16771;DHT22;8503;52.472;13.344;2023-05-24T07:36:41;12.59;67.68
16771;DHT22;8503;52.472;13.344;2023-05-24T07:38:45;12.65;67.07
16771;DHT22;8503;52.472;13.344;2023-05-24T07:40:49;12.53;67.65
16771;DHT22;8503;52.472;13.344;2023-05-24T07:42:54;12.74;67.67
16771;DHT22;8503;52.472;13.344;2023-05-24T07:44:58;12.88;66.91
16771;DHT22;8503;52.472;13.344;2023-05-24T07:47:03;12.61;67.70
16771;DHT22;8503;52.472;13.344;2023-05-24T07:49:07;12.66;68.07
16771;DHT22;8503;52.472;13.344;2023-05-24T07:51:11;12.82;67.48
16771;DHT22;8503;52.472;13.344;2023-05-24T07:53:15;12.50;67.36
16771;DHT22;8503;52.472;13.344;2023-05-24T07:55:19;12.77;68.01
16771;DHT22;8503;52.472;13.344;2023-05-24T07:57:23;12.81;66.89
16771;DHT22;8503;52.472;13.344;2023-05-24T07:59:27;13.12;66.47
16771;DHT22;8503;52.472;13.344;2023-05-24T08:01:32;13.06;66.54
16771;DHT22;8503;52.472;13.344;2023-05-24T08:03:38;13.35;66.19
16771;DHT22;8503;52.472;13.344;2023-05-24T08:05:42;13.47;64.98
16771;DHT22;8503;52.472;13.344;2023-05-24T08:07:47;13.51;65.13
16771;DHT22;8503;52.472;13.344;2023-05-24T08:09:51;13.38;65.85
16771;DHT22;8503;52.472;13.344;2023-05-24T08:11:54;13.46;65.83
16771;DHT22;8503;52.472;13.344;2023-05-24T08:13:58;13.49;65.26
16771;DHT22;8503;52.472;13.344;2023-05-24T08:16:02;13.67;65.05
16771;DHT22;8503;52.472;13.344;2023-05-24T08:18:05;13.81;64.78
16771;DHT22;8503;52.472;13.344;2023-05-24T08:20:11;13.85;64.66
16771;DHT22;8503;52.472;13.344;2023-05-24T08:22:16;13.98;63.66
16771;DHT22;8503;52.472;13.344;2023-05-24T08:24:20;14.48;64.24
16771;DHT22;8503;52.472;13.344;2023-05-24T08:26:24;14.52;63.80
16771;DHT22;8503;52.472;13.344;2023-05-24T08:28:28;14.32;62.82
16771;DHT22;8503;52.472;13.344;2023-05-24T08:30:32;14.28;62.95
16771;DHT22;8503;52.472;13.344;2023-05-24T08:32:35;13.96;64.14
16771;DHT22;8503;52.472;13.344;2023-05-24T08:34:39;14.01;63.88
16771;DHT22;8503;52.472;13.344;2023-05-24T08:36:45;14.28;62.94
16771;DHT22;8503;52.472;13.344;2023-05-24T08:38:49;14.33;62.84
16771;DHT22;8503;52.472;13.344;2023-05-24T08:40:53;14.49;63.29
16771;DHT22;8503;52.472;13.344;2023-05-24T08:42:58;14.69;62.14
16771;DHT22;8503;52.472;13.344;2023-05-24T08:45:05;14.68;61.21
16771;DHT22;8503;52.472;13.344;2023-05-24T08:47:14;14.59;61.52
16771;DHT22;8503;52.472;13.344;2023-05-24T08:49:18;14.78;61.81
16771;DHT22;8503;52.472;13.344;2023-05-24T08:51:23;14.75;61.43
16771;DHT22;8503;52.472;13.344;2023-05-24T08:53:29;14.91;60.63
16771;DHT22;8503;52.472;13.344;2023-05-24T08:55:32;15.02;60.72
16771;DHT22;8503;52.472;13.344;2023-05-24T08:57:38;14.97;60.67
16771;DHT22;8503;52.472;13.344;2023-05-24T08:59:42;14.96;60.06
16771;DHT22;8503;52.472;13.344;2023-05-24T09:01:46;14.82;60.22
16771;DHT22;8503;52.472;13.344;2023-05-24T09:03:56;14.88;59.86
16771;DHT22;8503;52.472;13.344;2023-05-24T09:06:02;14.64;60.54
16771;DHT22;8503;52.472;13.344;2023-05-24T09:08:06;14.64;60.94
16771;DHT22;8503;52.472;13.344;2023-05-24T09:10:12;14.54;60.00
16771;DHT22;8503;52.472;13.344;2023-05-24T09:12:17;14.83;59.64
16771;DHT22;8503;52.472;13.344;2023-05-24T09:14:36;14.99;60.21
16771;DHT22;8503;52.472;13.344;2023-05-24T09:16:40;15.13;59.03
16771;DHT22;8503;52.472;13.344;2023-05-24T09:18:44;15.22;59.39
16771;DHT22;8503;52.472;13.344;2023-05-24T09:20:50;15.21;58.99
16771;DHT22;8503;52.472;13.344;2023-05-24T09:22:53;15.29;58.77
16771;DHT22;8503;52.472;13.344;2023-05-24T09:24:58;15.60;58.79
16771;DHT22;8503;52.472;13.344;2023-05-24T09:27:05;15.49;57.51
16771;DHT22;8503;52.472;13.344;2023-05-24T09:29:09;15.32;58.22
16771;DHT22;8503;52.472;13.344;2023-05-24T09:31:13;15.45;57.95
16771;DHT22;8503;52.472;13.344;2023-05-24T09:33:17;15.46;57.74
16771;DHT22;8503;52.472;13.344;2023-05-24T09:35:22;15.21;57.66
16771;DHT22;8503;52.472;13.344;2023-05-24T09:37:27;15.00;58.16
16771;DHT22;8503;52.472;13.344;2023-05-24T09:39:33;15.25;58.48
16771;DHT22;8503;52.472;13.344;2023-05-24T09:41:37;15.06;59.07
16771;DHT22;8503;52.472;13.344;2023-05-24T09:43:49;15.01;59.12
16771;DHT22;8503;52.472;13.344;2023-05-24T09:45:53;14.77;58.89
16771;DHT22;8503;52.472;13.344;2023-05-24T09:48:02;14.93;59.49
16771;DHT22;8503;52.472;13.344;2023-05-24T09:50:11;14.86;58.96
16771;DHT22;8503;52.472;13.344;2023-05-24T09:52:16;14.74;59.25
16771;DHT22;8503;52.472;13.344;2023-05-24T09:54:20;14.59;59.80
16771;DHT22;8503;52.472;13.344;2023-05-24T09:56:26;14.52;60.59
16771;DHT22;8503;52.472;13.344;2023-05-24T09:58:29;14.43;59.64
16771;DHT22;8503;52.472;13.344;2023-05-24T10:00:38;14.42;59.51
16771;DHT22;8503;52.472;13.344;2023-05-24T10:02:43;14.59;58.67
16771;DHT22;8503;52.472;13.344;2023-05-24T10:04:57;14.68;58.11
16771;DHT22;8503;52.472;13.344;2023-05-24T10:07:04;14.82;59.44
16771;DHT22;8503;52.472;13.344;2023-05-24T10:09:08;14.94;58.59
16771;DHT22;8503;52.472;13.344;2023-05-24T10:11:11;14.89;58.96
16771;DHT22;8503;52.472;13.344;2023-05-24T10:13:17;14.74;58.77
16771;DHT22;8503;52.472;13.344;2023-05-24T10:15:20;14.55;58.11
16771;DHT22;8503;52.472;13.344;2023-05-24T10:17:26;14.25;59.57
16771;DHT22;8503;52.472;13.344;2023-05-24T10:19:30;14.39;59.48
16771;DHT22;8503;52.472;13.344;2023-05-24T10:26:53;0.00;0.00
16771;DHT22;8503;52.472;13.344;2023-05-24T10:28:32;17.74;68.46
16771;DHT22;8503;52.472;13.344;2023-05-24T10:29:05;17.88;67.84
16771;DHT22;8503;52.472;13.344;2023-05-24T10:29:46;18.03;67.18
16771;DHT22;8503;52.472;13.344;2023-05-24T10:30:17;18.20;66.87
16771;DHT22;8503;52.472;13.344;2023-05-24T10:30:53;18.33;66.63
16771;DHT22;8503;52.472;13.344;2023-05-24T10:31:25;18.48;66.04
16771;DHT22;8503;52.472;13.344;2023-05-24T10:31:52;18.58;65.69
16771;DHT22;8503;52.472;13.344;2023-05-24T10:33:25;18.89;65.01
16771;DHT22;8503;52.472;13.344;2023-05-24T10:34:49;87.87;67.36
16771;DHT22;8503;52.472;13.344;2023-05-24T10:36:14;0.00;0.00
16771;DHT22;8503;52.472;13.344;2023-05-24T10:37:39;0.00;0.00
16771;DHT22;8503;52.472;13.344;2023-05-24T10:39:03;20.14;69.08
16771;DHT22;8503;52.472;13.344;2023-05-24T10:40:30;20.50;65.39
16771;DHT22;8503;52.472;13.344;2023-05-24T10:41:55;20.83;64.65
16771;DHT22;8503;52.472;13.344;2023-05-24T10:43:20;21.33;66.22
16771;DHT22;8503;52.472;13.344;2023-05-24T10:44:44;21.74;62.11
16771;DHT22;8503;52.472;13.344;2023-05-24T10:46:08;22.13;65.82
16771;DHT22;8503;52.472;13.344;2023-05-24T10:47:32;22.43;59.35
16771;DHT22;8503;52.472;13.344;2023-05-24T10:49:01;22.84;56.54
16771;DHT22;8503;52.472;13.344;2023-05-24T10:50:27;23.06;55.94
16771;DHT22;8503;52.472;13.344;2023-05-24T10:52:00;23.18;55.61
16771;DHT22;8503;52.472;13.344;2023-05-24T10:53:26;23.23;54.46
16771;DHT22;8503;52.472;13.344;2023-05-24T10:55:09;23.22;53.62
16771;DHT22;8503;52.472;13.344;2023-05-24T10:56:39;23.21;53.77
16771;DHT22;8503;52.472;13.344;2023-05-24T10:58:04;23.18;53.53
16771;DHT22;8503;52.472;13.344;2023-05-24T10:59:32;23.14;53.72
16771;DHT22;8503;52.472;13.344;2023-05-24T11:00:58;23.11;53.16
16771;DHT22;8503;52.472;13.344;2023-05-24T11:03:50;22.32;44.80
16771;DHT22;8503;52.472;13.344;2023-05-24T11:05:14;21.60;45.23
16771;DHT22;8503;52.472;13.344;2023-05-24T11:06:45;20.98;46.67
16771;DHT22;8503;52.472;13.344;2023-05-24T11:08:11;20.31;47.98
16771;DHT22;8503;52.472;13.344;2023-05-24T11:09:35;19.81;49.37
16771;DHT22;8503;52.472;13.344;2023-05-24T11:11:09;19.21;49.82
16771;DHT22;8503;52.472;13.344;2023-05-24T11:12:37;18.67;51.49
16771;DHT22;8503;52.472;13.344;2023-05-24T11:14:02;18.28;52.56
16771;DHT22;8503;52.472;13.344;2023-05-24T11:15:26;17.93;52.27
16771;DHT22;8503;52.472;13.344;2023-05-24T11:16:51;17.64;52.94
16771;DHT22;8503;52.472;13.344;2023-05-24T11:18:15;17.36;54.04
16771;DHT22;8503;52.472;13.344;2023-05-24T11:19:47;17.10;54.31
16771;DHT22;8503;52.472;13.344;2023-05-24T11:21:12;16.90;53.80
16771;DHT22;8503;52.472;13.344;2023-05-24T11:22:36;16.72;54.84
16771;DHT22;8503;52.472;13.344;2023-05-24T11:24:02;16.52;55.34
16771;DHT22;8503;52.472;13.344;2023-05-24T11:25:25;16.36;55.56
16771;DHT22;8503;52.472;13.344;2023-05-24T11:26:50;16.21;55.61
16771;DHT22;8503;52.472;13.344;2023-05-24T11:28:14;16.12;55.44
16771;DHT22;8503;52.472;13.344;2023-05-24T11:29:39;15.97;55.82
16771;DHT22;8503;52.472;13.344;2023-05-24T11:31:07;15.90;55.50
16771;DHT22;8503;52.472;13.344;2023-05-24T11:32:31;15.76;56.09
16771;DHT22;8503;52.472;13.344;2023-05-24T11:33:55;15.67;55.93
16771;DHT22;8503;52.472;13.344;2023-05-24T11:35:20;15.55;57.22
16771;DHT22;8503;52.472;13.344;2023-05-24T11:36:48;15.47;57.41
16771;DHT22;8503;52.472;13.344;2023-05-24T11:38:15;15.41;57.93
16771;DHT22;8503;52.472;13.344;2023-05-24T11:39:39;15.40;57.64
16771;DHT22;8503;52.472;13.344;2023-05-24T11:41:04;15.39;57.43
16771;DHT22;8503;52.472;13.344;2023-05-24T11:42:28;15.36;57.73
16771;DHT22;8503;52.472;13.344;2023-05-24T11:43:52;15.29;57.84
16771;DHT22;8503;52.472;13.344;2023-05-24T11:45:17;15.30;57.80
16771;DHT22;8503;52.472;13.344;2023-05-24T11:46:42;15.31;57.51
16771;DHT22;8503;52.472;13.344;2023-05-24T11:48:06;15.22;58.15
16771;DHT22;8503;52.472;13.344;2023-05-24T11:49:30;15.25;58.33
16771;DHT22;8503;52.472;13.344;2023-05-24T11:50:55;15.19;58.65
16771;DHT22;8503;52.472;13.344;2023-05-24T11:52:20;15.22;58.03
16771;DHT22;8503;52.472;13.344;2023-05-24T11:53:44;15.23;57.64
16771;DHT22;8503;52.472;13.344;2023-05-24T11:55:10;15.22;57.87
16771;DHT22;8503;52.472;13.344;2023-05-24T11:56:38;15.21;58.39
16771;DHT22;8503;52.472;13.344;2023-05-24T11:58:05;15.22;58.54
16771;DHT22;8503;52.472;13.344;2023-05-24T11:59:33;15.22;58.38
16771;DHT22;8503;52.472;13.344;2023-05-24T12:00:58;15.23;58.09
16771;DHT22;8503;52.472;13.344;2023-05-24T12:02:23;15.19;58.64
16771;DHT22;8503;52.472;13.344;2023-05-24T12:03:47;15.26;57.67
16771;DHT22;8503;52.472;13.344;2023-05-24T12:05:12;15.16;58.69
16771;DHT22;8503;52.472;13.344;2023-05-24T12:06:38;15.15;58.16
16771;DHT22;8503;52.472;13.344;2023-05-24T12:08:05;15.08;59.37
16771;DHT22;8503;52.472;13.344;2023-05-24T12:09:33;15.14;58.99
16771;DHT22;8503;52.472;13.344;2023-05-24T12:10:56;15.17;58.98
16771;DHT22;8503;52.472;13.344;2023-05-24T12:12:20;15.17;58.80
16771;DHT22;8503;52.472;13.344;2023-05-24T12:13:56;15.19;60.28
16771;DHT22;8503;52.472;13.344;2023-05-24T12:15:21;15.14;59.25
16771;DHT22;8503;52.472;13.344;2023-05-24T12:16:46;15.14;59.67
16771;DHT22;8503;52.472;13.344;2023-05-24T12:18:17;15.24;58.32
16771;DHT22;8503;52.472;13.344;2023-05-24T12:19:43;15.27;60.59
16771;DHT22;8503;52.472;13.344;2023-05-24T12:21:08;15.32;60.47